createdAt,value
2022-11-24T00:01:23.209Z,18.37
2022-11-24T00:03:58.267Z,18.87
2022-11-24T00:06:26.322Z,19.37
2022-11-24T00:08:54.489Z,18.57
2022-11-24T00:11:28.166Z,18.90
2022-11-24T00:13:55.614Z,21.03
2022-11-24T00:16:35.136Z,17.20
2022-11-24T00:19:06.204Z,19.23
2022-11-24T00:21:33.183Z,20.60
2022-11-24T00:24:00.974Z,22.80
2022-11-24T00:26:32.008Z,24.07
2022-11-24T00:29:05.717Z,22.10
2022-11-24T00:31:37.209Z,22.87
2022-11-24T00:34:10.510Z,20.50
2022-11-24T00:36:38.518Z,21.43
2022-11-24T00:39:10.340Z,19.77
2022-11-24T00:41:38.052Z,20.57
2022-11-24T00:44:05.528Z,20.30
2022-11-24T00:46:32.668Z,21.73
2022-11-24T00:49:02.838Z,19.47
2022-11-24T00:51:30.867Z,19.67
2022-11-24T00:53:58.948Z,18.43
2022-11-24T00:56:27.737Z,18.07
2022-11-24T00:58:55.269Z,17.17
2022-11-24T01:01:29.178Z,17.00
2022-11-24T01:03:56.688Z,17.03
2022-11-24T01:06:26.447Z,15.97
2022-11-24T01:08:54.295Z,16.23
2022-11-24T01:11:28.273Z,18.20
2022-11-24T01:13:59.020Z,16.17
2022-11-24T01:16:33.286Z,17.83
2022-11-24T01:19:01.442Z,17.37
2022-11-24T01:21:28.456Z,15.70
2022-11-24T01:23:55.486Z,16.13
2022-11-24T01:26:23.461Z,15.27
2022-11-24T01:28:58.382Z,14.60
2022-11-24T01:31:26.737Z,16.40
2022-11-24T01:33:54.268Z,14.93
2022-11-24T01:36:22.246Z,15.63
2022-11-24T01:38:49.623Z,16.77
2022-11-24T01:41:21.627Z,14.87
2022-11-24T01:43:49.806Z,15.70
2022-11-24T01:46:46.461Z,15.03
2022-11-24T01:49:23.221Z,15.23
2022-11-24T01:52:20.228Z,16.07
2022-11-24T01:55:00.244Z,16.90
2022-11-24T01:57:37.046Z,16.73
2022-11-24T02:00:10.998Z,14.87
2022-11-24T02:02:38.637Z,14.60
2022-11-24T02:05:25.688Z,15.87
2022-11-24T02:07:56.698Z,14.80
2022-11-24T02:10:23.997Z,15.97
2022-11-24T02:12:55.058Z,15.37
2022-11-24T02:15:22.850Z,14.90
2022-11-24T02:17:49.973Z,15.50
2022-11-24T02:20:18.101Z,14.80
2022-11-24T02:23:24.446Z,15.27
2022-11-24T02:26:28.734Z,15.70
2022-11-24T02:28:56.028Z,13.83
2022-11-24T02:31:23.076Z,15.77
2022-11-24T02:33:51.219Z,14.30
2022-11-24T02:36:18.349Z,14.40
2022-11-24T02:38:45.408Z,15.03
2022-11-24T02:41:20.011Z,14.57
2022-11-24T02:43:55.760Z,14.30
2022-11-24T02:46:23.540Z,14.97
2022-11-24T02:48:50.686Z,13.13
2022-11-24T02:51:18.104Z,13.43
2022-11-24T02:53:45.678Z,12.87
2022-11-24T02:56:12.927Z,12.77
2022-11-24T02:58:40.056Z,13.13
2022-11-24T03:01:07.303Z,11.37
2022-11-24T03:03:34.365Z,14.00
2022-11-24T03:06:01.368Z,11.80
2022-11-24T03:08:28.386Z,12.90
2022-11-24T03:10:55.531Z,12.87
2022-11-24T03:13:22.555Z,13.27
2022-11-24T03:15:49.689Z,11.80
2022-11-24T03:18:16.778Z,13.07
2022-11-24T03:20:44.324Z,11.87
2022-11-24T03:23:11.459Z,12.27
2022-11-24T03:25:38.553Z,12.70
2022-11-24T03:28:05.805Z,13.90
2022-11-24T03:30:32.839Z,13.73
2022-11-24T03:32:59.940Z,12.53
2022-11-24T03:35:27.046Z,12.33
2022-11-24T03:37:54.062Z,11.50
2022-11-24T03:40:21.121Z,12.10
2022-11-24T03:42:48.137Z,11.70
2022-11-24T03:45:45.641Z,12.20
2022-11-24T03:48:02.198Z,12.47
2022-11-24T03:50:29.345Z,11.50
2022-11-24T03:52:56.403Z,11.37
2022-11-24T03:55:23.388Z,12.40
2022-11-24T03:57:50.414Z,11.87
2022-11-24T04:00:18.027Z,11.83
2022-11-24T04:02:45.087Z,11.77
2022-11-24T04:05:12.219Z,11.07
2022-11-24T04:07:39.326Z,11.20
2022-11-24T04:10:07.451Z,11.40
2022-11-24T04:12:46.502Z,11.37
2022-11-24T04:15:17.883Z,10.30
2022-11-24T04:17:46.551Z,10.70
2022-11-24T04:20:14.255Z,10.70
2022-11-24T04:22:41.658Z,10.57
2022-11-24T04:25:10.321Z,10.77
2022-11-24T04:27:38.709Z,11.83
2022-11-24T04:30:07.573Z,11.53
2022-11-24T04:32:34.797Z,11.17
2022-11-24T04:35:01.840Z,10.90
2022-11-24T04:37:28.863Z,11.37
2022-11-24T04:39:55.864Z,12.30
2022-11-24T04:42:22.887Z,12.53
2022-11-24T04:44:50.328Z,10.97
2022-11-24T04:47:25.615Z,11.50
2022-11-24T04:49:53.856Z,11.87
2022-11-24T04:52:23.080Z,10.53
2022-11-24T04:54:50.360Z,10.57
2022-11-24T04:57:19.536Z,12.03
2022-11-24T04:59:46.727Z,12.30
2022-11-24T05:02:14.139Z,11.53
2022-11-24T05:04:41.356Z,12.30
2022-11-24T05:07:17.987Z,11.67
2022-11-24T05:10:22.110Z,12.77
2022-11-24T05:12:59.674Z,12.63
2022-11-24T05:15:27.184Z,12.03
2022-11-24T05:17:54.358Z,13.27
2022-11-24T05:20:21.596Z,12.27
2022-11-24T05:22:48.624Z,12.73
2022-11-24T05:25:15.922Z,12.07
2022-11-24T05:27:43.259Z,13.30
2022-11-24T05:30:11.534Z,12.47
2022-11-24T05:32:38.516Z,12.33
2022-11-24T05:35:06.186Z,12.67
2022-11-24T05:37:33.145Z,12.70
2022-11-24T05:40:00.112Z,12.23
2022-11-24T05:42:47.089Z,12.37
2022-11-24T05:45:18.940Z,11.73
2022-11-24T05:47:47.063Z,12.33
2022-11-24T05:50:17.190Z,13.33
2022-11-24T05:52:44.496Z,11.97
2022-11-24T05:55:13.425Z,12.43
2022-11-24T05:57:40.788Z,12.10
2022-11-24T06:00:09.428Z,13.37
2022-11-24T06:02:36.516Z,12.50
2022-11-24T06:05:03.715Z,12.57
2022-11-24T06:07:30.751Z,12.90
2022-11-24T06:09:57.716Z,13.20
2022-11-24T06:12:24.657Z,13.43
2022-11-24T06:14:51.793Z,13.47
2022-11-24T06:17:18.778Z,13.23
2022-11-24T06:19:47.931Z,14.17
2022-11-24T06:22:15.023Z,13.67
2022-11-24T06:24:42.028Z,13.73
2022-11-24T06:27:09.025Z,12.83
2022-11-24T06:29:35.950Z,13.73
2022-11-24T06:32:02.937Z,13.53
2022-11-24T06:34:29.954Z,13.03
2022-11-24T06:36:57.191Z,13.47
2022-11-24T06:39:24.126Z,13.70
2022-11-24T06:41:51.616Z,13.97
2022-11-24T06:44:19.157Z,14.00
2022-11-24T06:46:46.298Z,12.47
2022-11-24T06:49:13.291Z,12.07
2022-11-24T06:51:40.268Z,12.40
2022-11-24T06:54:09.029Z,14.00
2022-11-24T06:56:36.647Z,12.80
2022-11-24T06:59:03.709Z,11.30
2022-11-24T07:01:30.824Z,11.60
2022-11-24T07:03:58.852Z,12.27
2022-11-24T07:06:27.013Z,11.97
2022-11-24T07:08:54.012Z,10.97
2022-11-24T07:11:23.773Z,11.53
2022-11-24T07:13:55.081Z,11.17
2022-11-24T07:16:27.399Z,10.23
2022-11-24T07:18:55.599Z,10.77
2022-11-24T07:21:24.629Z,10.27
2022-11-24T07:23:54.361Z,10.90
2022-11-24T07:26:22.505Z,12.07
2022-11-24T07:28:49.773Z,10.30
2022-11-24T07:31:20.247Z,9.90
2022-11-24T07:33:52.472Z,10.40
2022-11-24T07:36:20.314Z,10.13
2022-11-24T07:38:48.077Z,9.53
2022-11-24T07:41:18.148Z,11.30
2022-11-24T07:43:45.163Z,10.30
2022-11-24T07:46:14.746Z,9.60
2022-11-24T07:48:41.713Z,10.17
2022-11-24T07:51:09.749Z,9.43
2022-11-24T07:53:37.686Z,8.70
2022-11-24T07:56:06.336Z,9.73
2022-11-24T07:58:36.088Z,10.17
2022-11-24T08:01:17.949Z,10.10
2022-11-24T08:03:46.329Z,9.00
2022-11-24T08:06:25.450Z,9.63
2022-11-24T08:08:55.220Z,8.60
2022-11-24T08:11:22.691Z,9.00
2022-11-24T08:13:49.732Z,8.67
2022-11-24T08:16:19.841Z,9.47
2022-11-24T08:18:54.990Z,9.17
2022-11-24T08:21:23.605Z,9.27
2022-11-24T08:23:55.196Z,9.20
2022-11-24T08:26:23.017Z,9.90
2022-11-24T08:28:56.045Z,8.70
2022-11-24T08:31:23.215Z,9.60
2022-11-24T08:33:50.233Z,8.63
2022-11-24T08:36:19.339Z,9.13
2022-11-24T08:38:48.954Z,8.73
2022-11-24T08:41:17.603Z,9.97
2022-11-24T08:43:44.936Z,10.50
2022-11-24T08:46:17.253Z,8.57
2022-11-24T08:48:50.141Z,9.10
2022-11-24T08:51:20.836Z,7.97
2022-11-24T08:53:47.756Z,9.70
2022-11-24T08:56:15.230Z,9.47
2022-11-24T08:58:42.353Z,11.80
2022-11-24T09:01:14.651Z,10.13
2022-11-24T09:03:50.051Z,10.17
2022-11-24T09:06:24.909Z,10.43
2022-11-24T09:08:54.579Z,9.77
2022-11-24T09:11:22.321Z,11.23
2022-11-24T09:13:49.622Z,9.70
2022-11-24T09:16:21.818Z,10.53
2022-11-24T09:18:54.691Z,11.10
2022-11-24T09:21:22.625Z,9.67
2022-11-24T09:23:51.913Z,11.47
2022-11-24T09:26:32.246Z,10.87
2022-11-24T09:29:01.173Z,10.60
2022-11-24T09:31:39.233Z,10.30
2022-11-24T09:34:15.153Z,10.73
2022-11-24T09:36:43.022Z,11.13
2022-11-24T09:39:11.396Z,9.87
2022-11-24T09:42:15.894Z,11.80
2022-11-24T09:44:58.204Z,10.97
2022-11-24T09:48:03.615Z,11.47
2022-11-24T09:50:36.400Z,12.40
2022-11-24T09:53:21.494Z,12.63
2022-11-24T09:55:51.957Z,10.73
2022-11-24T09:58:48.541Z,12.87
2022-11-24T10:01:24.489Z,11.20
2022-11-24T10:03:53.380Z,12.33
2022-11-24T10:06:34.770Z,12.27
2022-11-24T10:09:12.980Z,13.37
2022-11-24T10:12:16.371Z,12.60
2022-11-24T10:15:22.527Z,11.77
2022-11-24T10:18:05.099Z,13.13
2022-11-24T10:21:11.919Z,13.07
2022-11-24T10:24:26.033Z,14.00
2022-11-24T10:27:22.039Z,13.17
2022-11-24T10:29:52.877Z,12.90
2022-11-24T10:32:33.489Z,11.37
2022-11-24T10:35:35.180Z,12.67
2022-11-24T10:38:41.191Z,11.93
2022-11-24T10:41:24.227Z,13.03
2022-11-24T10:43:52.788Z,11.60
2022-11-24T10:46:27.210Z,13.30
2022-11-24T10:49:00.898Z,13.30
2022-11-24T10:52:11.011Z,12.43
2022-11-24T10:55:01.456Z,13.40
2022-11-24T10:57:36.385Z,13.53
2022-11-24T11:00:20.946Z,11.77
2022-11-24T11:03:17.505Z,12.57
2022-11-24T11:06:24.421Z,11.13
2022-11-24T11:09:14.412Z,12.90
2022-11-24T11:11:42.967Z,12.30
2022-11-24T11:14:12.918Z,13.93
2022-11-24T11:16:55.776Z,12.20
2022-11-24T11:19:54.104Z,13.67
2022-11-24T11:22:35.400Z,13.50
2022-11-24T11:25:20.038Z,12.60
2022-11-24T11:27:48.355Z,12.67
2022-11-24T11:36:16.454Z,12.20
2022-11-24T11:38:45.349Z,12.00
2022-11-24T11:41:24.324Z,11.73
2022-11-24T11:44:04.654Z,12.87
2022-11-24T11:46:32.708Z,12.90
2022-11-24T11:49:00.023Z,11.27
2022-11-24T11:52:09.039Z,12.33
2022-11-24T11:55:08.503Z,12.30
2022-11-24T11:58:00.373Z,12.33
2022-11-24T12:00:28.030Z,12.37
2022-11-24T12:03:19.645Z,13.37
2022-11-24T12:06:26.913Z,12.93
2022-11-24T12:09:29.307Z,12.93
2022-11-24T12:12:36.663Z,12.23
2022-11-24T12:15:18.176Z,12.27
2022-11-24T12:18:55.380Z,12.87
2022-11-24T12:21:38.913Z,12.23
2022-11-24T12:24:40.452Z,13.00
2022-11-24T12:27:51.381Z,13.07
2022-11-24T12:30:21.901Z,12.47
2022-11-24T12:33:50.575Z,12.37
2022-11-24T12:36:53.755Z,13.23
2022-11-24T12:39:28.460Z,13.63
2022-11-24T12:42:30.306Z,13.83
2022-11-24T12:45:08.908Z,13.57
2022-11-24T12:48:39.372Z,13.87
2022-11-24T12:51:16.923Z,13.13
2022-11-24T12:53:47.658Z,12.53
2022-11-24T12:56:17.452Z,14.00
2022-11-24T12:59:08.908Z,13.33
2022-11-24T13:01:47.572Z,13.50
2022-11-24T13:04:50.398Z,14.43
2022-11-24T13:07:45.017Z,14.37
2022-11-24T13:10:53.539Z,13.90
2022-11-24T13:13:15.655Z,13.47
2022-11-24T13:16:34.703Z,13.23
2022-11-24T13:18:58.331Z,14.20
2022-11-24T13:21:35.830Z,14.90
2022-11-24T13:24:30.739Z,13.37
2022-11-24T13:27:16.214Z,13.13
2022-11-24T13:29:51.259Z,15.70
2022-11-24T13:32:21.253Z,14.00
2022-11-24T13:34:54.884Z,13.63
2022-11-24T13:37:34.857Z,14.80
2022-11-24T13:40:11.764Z,15.33
2022-11-24T13:43:01.419Z,14.80
2022-11-24T13:45:41.042Z,14.10
2022-11-24T13:48:20.795Z,15.10
2022-11-24T13:50:51.076Z,13.60
2022-11-24T13:53:43.970Z,14.30
2022-11-24T13:56:14.066Z,15.30
2022-11-24T13:58:53.765Z,14.03
2022-11-24T14:01:35.961Z,13.90
2022-11-24T14:04:30.153Z,14.37
2022-11-24T14:07:08.788Z,14.63
2022-11-24T14:09:45.932Z,13.97
2022-11-24T14:12:22.941Z,14.30
2022-11-24T14:14:52.975Z,13.73
2022-11-24T14:17:24.604Z,13.97
2022-11-24T14:19:54.594Z,13.50
2022-11-24T14:22:23.435Z,13.90
2022-11-24T14:25:02.193Z,13.60
2022-11-24T14:27:36.978Z,13.80
2022-11-24T14:30:25.474Z,13.63
2022-11-24T14:33:01.028Z,12.77
2022-11-24T14:35:34.728Z,13.40
2022-11-24T14:38:04.917Z,13.67
2022-11-24T14:40:55.811Z,15.27
2022-11-24T14:43:33.398Z,13.47
2022-11-24T14:46:18.058Z,15.17
2022-11-24T14:48:53.028Z,14.60
2022-11-24T14:51:30.604Z,15.50
2022-11-24T14:54:07.113Z,16.17
2022-11-24T14:56:39.052Z,14.60
2022-11-24T14:59:24.246Z,16.77
2022-11-24T15:01:51.382Z,15.27
2022-11-24T15:04:46.699Z,17.10
2022-11-24T15:07:29.590Z,15.13
2022-11-24T15:10:02.580Z,16.73
2022-11-24T15:12:48.112Z,15.90
2022-11-24T15:15:15.173Z,15.87
2022-11-24T15:17:58.914Z,16.37
2022-11-24T15:20:36.170Z,16.00
2022-11-24T15:23:30.993Z,17.17
2022-11-24T15:26:01.895Z,17.83
2022-11-24T15:28:31.296Z,16.73
2022-11-24T15:31:09.888Z,17.33
2022-11-24T15:33:37.116Z,17.13
2022-11-24T15:36:04.786Z,16.97
2022-11-24T15:38:32.089Z,16.40
2022-11-24T15:41:01.227Z,17.07
2022-11-24T15:43:38.741Z,17.03
2022-11-24T15:46:08.247Z,18.53
2022-11-24T15:48:35.386Z,17.57
2022-11-24T15:51:08.049Z,16.17
2022-11-24T15:53:42.977Z,19.10
2022-11-24T15:56:19.382Z,17.90
2022-11-24T15:58:46.356Z,18.07
2022-11-24T16:01:13.454Z,18.23
2022-11-24T16:03:48.871Z,17.17
2022-11-24T16:06:24.784Z,18.57
2022-11-24T16:08:54.003Z,19.83
2022-11-24T16:11:21.964Z,18.27
2022-11-24T16:13:52.840Z,19.00
2022-11-24T16:16:23.044Z,19.73
2022-11-24T16:18:50.637Z,19.67
2022-11-24T16:21:17.736Z,20.23
2022-11-24T16:23:45.631Z,21.23
2022-11-24T16:26:12.554Z,19.90
2022-11-24T16:28:39.451Z,19.13
2022-11-24T16:31:06.429Z,21.43
2022-11-24T16:33:33.450Z,21.03
2022-11-24T16:36:00.365Z,20.60
2022-11-24T16:38:27.282Z,20.83
2022-11-24T16:40:56.411Z,21.27
2022-11-24T16:43:24.688Z,20.37
2022-11-24T16:46:22.890Z,22.83
2022-11-24T16:48:53.738Z,21.13
2022-11-24T16:51:22.841Z,20.13
2022-11-24T16:53:58.714Z,21.23
2022-11-24T16:56:29.597Z,22.87
2022-11-24T16:58:56.823Z,22.40
2022-11-24T17:01:24.141Z,23.67
2022-11-24T17:03:51.365Z,23.23
2022-11-24T17:06:19.126Z,22.47
2022-11-24T17:08:47.471Z,23.47
2022-11-24T17:11:20.750Z,24.37
2022-11-24T17:13:49.217Z,23.30
2022-11-24T17:16:19.849Z,27.20
2022-11-24T17:18:47.354Z,25.63
2022-11-24T17:21:18.176Z,24.30
2022-11-24T17:23:45.518Z,25.30
2022-11-24T17:26:17.782Z,25.93
2022-11-24T17:28:45.190Z,25.43
2022-11-24T17:31:37.194Z,25.13
2022-11-24T17:34:05.754Z,25.77
2022-11-24T17:36:34.729Z,26.10
2022-11-24T17:39:07.137Z,24.23
2022-11-24T17:41:34.544Z,25.37
2022-11-24T17:44:01.715Z,27.70
2022-11-24T17:46:30.258Z,29.50
2022-11-24T17:48:57.823Z,29.50
2022-11-24T17:51:26.677Z,28.73
2022-11-24T17:53:55.436Z,31.17
2022-11-24T17:56:27.866Z,31.13
2022-11-24T17:58:57.409Z,31.10
2022-11-24T18:01:26.134Z,30.10
2022-11-24T18:03:54.281Z,29.03
2022-11-24T18:06:25.096Z,32.67
2022-11-24T18:08:54.074Z,30.63
2022-11-24T18:11:30.470Z,31.13
2022-11-24T18:14:01.943Z,29.40
2022-11-24T18:16:34.367Z,29.53
2022-11-24T18:19:08.781Z,28.87
2022-11-24T18:21:41.051Z,27.20
2022-11-24T18:24:10.340Z,25.97
2022-11-24T18:26:38.859Z,26.23
2022-11-24T18:29:05.889Z,26.57
2022-11-24T18:31:35.508Z,25.03
2022-11-24T18:34:05.265Z,24.67
2022-11-24T18:36:33.346Z,25.23
2022-11-24T18:39:06.562Z,26.30
2022-11-24T18:41:33.926Z,26.23
2022-11-24T18:44:08.014Z,27.90
2022-11-24T18:46:35.725Z,25.00
2022-11-24T18:49:03.299Z,24.57
2022-11-24T18:51:30.415Z,26.10
2022-11-24T18:54:02.195Z,27.93
2022-11-24T18:56:29.183Z,25.17
2022-11-24T18:58:57.032Z,24.90
2022-11-24T19:01:27.841Z,26.17
2022-11-24T19:03:58.645Z,28.87
2022-11-24T19:06:35.742Z,26.57
2022-11-24T19:09:15.656Z,24.60
2022-11-24T19:11:45.383Z,24.60
2022-11-24T19:14:18.412Z,25.33
2022-11-24T19:16:48.016Z,25.23
2022-11-24T19:19:17.035Z,24.33
2022-11-24T19:21:44.715Z,24.63
2022-11-24T19:24:13.232Z,23.47
2022-11-24T19:26:40.616Z,25.03
2022-11-24T19:29:08.559Z,24.20
2022-11-24T19:31:36.139Z,22.97
2022-11-24T19:34:05.347Z,25.90
2022-11-24T19:36:32.707Z,25.73
2022-11-24T19:39:00.065Z,27.93
2022-11-24T19:41:30.093Z,27.33
2022-11-24T19:43:58.490Z,28.97
2022-11-24T19:46:28.009Z,28.93
2022-11-24T19:48:59.507Z,27.33
2022-11-24T19:51:30.937Z,26.60
2022-11-24T19:53:58.432Z,28.97
2022-11-24T19:56:28.203Z,28.67
2022-11-24T19:58:56.459Z,29.97
2022-11-24T20:01:33.688Z,27.73
2022-11-24T20:04:12.555Z,29.50
2022-11-24T20:06:42.799Z,28.07
2022-11-24T20:09:12.724Z,28.37
2022-11-24T20:11:40.292Z,29.03
2022-11-24T20:14:09.730Z,28.90
2022-11-24T20:16:36.862Z,30.33
2022-11-24T20:19:07.860Z,28.77
2022-11-24T20:21:37.287Z,29.93
2022-11-24T20:24:07.906Z,28.80
2022-11-24T20:26:38.622Z,30.23
2022-11-24T20:29:06.432Z,28.70
2022-11-24T20:31:38.157Z,33.87
2022-11-24T20:34:07.153Z,28.40
2022-11-24T20:36:36.713Z,29.07
2022-11-24T20:39:09.511Z,27.43
2022-11-24T20:41:39.641Z,28.37
2022-11-24T20:44:11.308Z,27.20
2022-11-24T20:46:40.180Z,26.67
2022-11-24T20:49:10.396Z,25.33
2022-11-24T20:51:39.819Z,25.63
2022-11-24T20:54:09.027Z,25.20
2022-11-24T20:56:42.195Z,26.07
2022-11-24T20:59:22.645Z,24.27
2022-11-24T21:01:51.301Z,22.77
2022-11-24T21:04:22.586Z,22.50
2022-11-24T21:06:50.249Z,22.60
2022-11-24T21:09:18.273Z,23.33
2022-11-24T21:11:45.363Z,24.63
2022-11-24T21:14:12.946Z,22.67
2022-11-24T21:16:42.109Z,21.90
2022-11-24T21:19:14.812Z,22.23
2022-11-24T21:21:43.087Z,22.30
2022-11-24T21:24:16.403Z,23.20
2022-11-24T21:26:47.503Z,22.50
2022-11-24T21:29:17.323Z,22.37
2022-11-24T21:31:44.351Z,22.47
2022-11-24T21:34:16.064Z,20.97
2022-11-24T21:36:45.150Z,23.10
2022-11-24T21:39:14.792Z,24.40
2022-11-24T21:41:42.755Z,23.93
2022-11-24T21:44:12.902Z,24.70
2022-11-24T21:46:45.107Z,24.70
2022-11-24T21:49:16.457Z,25.50
2022-11-24T21:51:43.334Z,25.40
2022-11-24T21:54:10.264Z,26.13
2022-11-24T21:56:37.251Z,25.57
2022-11-24T21:59:04.210Z,25.40
2022-11-24T22:01:31.148Z,27.30
2022-11-24T22:03:58.406Z,27.77
2022-11-24T22:06:25.357Z,26.97
2022-11-24T22:08:52.513Z,28.50
2022-11-24T22:11:25.099Z,27.50
2022-11-24T22:13:52.649Z,28.43
2022-11-24T22:16:23.319Z,27.80
2022-11-24T22:18:51.052Z,26.87
2022-11-24T22:21:24.309Z,28.33
2022-11-24T22:23:52.751Z,28.67
2022-11-24T22:26:22.434Z,28.47
2022-11-24T22:28:50.126Z,29.93
2022-11-24T22:31:26.882Z,28.83
2022-11-24T22:33:55.926Z,29.50
2022-11-24T22:36:26.161Z,29.97
2022-11-24T22:38:59.211Z,29.60
2022-11-24T22:41:26.426Z,28.93
2022-11-24T22:43:54.232Z,30.47
2022-11-24T22:46:24.689Z,28.67
2022-11-24T22:48:53.021Z,27.10
2022-11-24T22:51:24.087Z,27.07
2022-11-24T22:53:55.463Z,27.97
2022-11-24T22:56:23.052Z,26.33
2022-11-24T22:58:50.680Z,26.10
2022-11-24T23:01:23.163Z,27.00
2022-11-24T23:03:51.153Z,28.43
2022-11-24T23:06:21.432Z,26.00
2022-11-24T23:08:49.619Z,27.37
2022-11-24T23:11:25.857Z,28.57
2022-11-24T23:14:00.327Z,26.23
2022-11-24T23:16:28.894Z,27.57
2022-11-24T23:18:56.402Z,25.67
2022-11-24T23:21:36.489Z,25.80
2022-11-24T23:24:04.944Z,27.60
2022-11-24T23:26:39.359Z,26.63
2022-11-24T23:29:06.904Z,25.10
2022-11-24T23:31:34.461Z,26.83
2022-11-24T23:34:03.877Z,26.37
2022-11-24T23:36:32.327Z,27.50
2022-11-24T23:39:14.413Z,26.77
2022-11-24T23:41:41.587Z,26.67
2022-11-24T23:44:09.081Z,26.10
2022-11-24T23:46:36.244Z,29.00
2022-11-24T23:49:03.313Z,28.37
2022-11-24T23:51:32.789Z,27.40
2022-11-24T23:54:00.625Z,26.50
2022-11-24T23:56:32.557Z,29.13
2022-11-24T23:59:04.546Z,27.17
